createdAt,value
2023-05-04T00:00:12.157Z,3.20
2023-05-04T00:02:13.845Z,4.87
2023-05-04T00:04:15.539Z,3.13
2023-05-04T00:06:17.340Z,3.37
2023-05-04T00:08:19.009Z,3.40
2023-05-04T00:10:20.814Z,3.20
2023-05-04T00:12:22.641Z,4.10
2023-05-04T00:14:24.344Z,4.00
2023-05-04T00:16:26.164Z,3.57
2023-05-04T00:18:27.871Z,3.77
2023-05-04T00:20:29.542Z,4.17
2023-05-04T00:22:31.264Z,3.17
2023-05-04T00:24:33.024Z,4.00
2023-05-04T00:26:34.723Z,4.10
2023-05-04T00:28:36.527Z,3.60
2023-05-04T00:30:38.696Z,3.53
2023-05-04T00:32:40.474Z,3.80
2023-05-04T00:34:42.135Z,3.70
2023-05-04T00:36:43.997Z,3.30
2023-05-04T00:38:54.177Z,4.30
2023-05-04T00:40:56.001Z,3.97
2023-05-04T00:42:57.715Z,3.83
2023-05-04T00:44:59.369Z,4.17
2023-05-04T00:47:02.508Z,4.53
2023-05-04T00:49:05.461Z,4.03
2023-05-04T00:51:08.034Z,4.80
2023-05-04T00:53:11.652Z,4.63
2023-05-04T00:55:14.436Z,4.83
2023-05-04T00:57:16.810Z,5.57
2023-05-04T00:59:18.581Z,5.10
2023-05-04T01:01:21.921Z,5.00
2023-05-04T01:03:24.273Z,4.50
2023-05-04T01:05:30.108Z,4.70
2023-05-04T01:08:01.243Z,4.60
2023-05-04T01:10:09.945Z,5.50
2023-05-04T01:12:33.283Z,4.67
2023-05-04T01:14:35.961Z,5.23
2023-05-04T01:16:37.812Z,5.10
2023-05-04T01:18:39.511Z,5.40
2023-05-04T01:20:41.290Z,5.73
2023-05-04T01:22:43.226Z,4.80
2023-05-04T01:24:45.092Z,4.27
2023-05-04T01:26:48.766Z,4.83
2023-05-04T01:28:58.618Z,5.23
2023-05-04T01:31:02.306Z,6.17
2023-05-04T01:33:04.933Z,5.30
2023-05-04T01:35:07.474Z,4.90
2023-05-04T01:37:09.357Z,6.00
2023-05-04T01:39:11.162Z,5.20
2023-05-04T01:41:12.879Z,4.87
2023-05-04T01:43:14.784Z,5.80
2023-05-04T01:45:16.720Z,5.07
2023-05-04T01:47:18.393Z,4.60
2023-05-04T01:49:20.017Z,4.67
2023-05-04T01:51:21.898Z,5.30
2023-05-04T01:53:23.627Z,5.50
2023-05-04T01:55:25.422Z,5.23
2023-05-04T01:57:27.183Z,5.30
2023-05-04T01:59:28.859Z,5.50
2023-05-04T02:01:30.604Z,6.87
2023-05-04T02:03:32.404Z,5.60
2023-05-04T02:05:34.064Z,5.13
2023-05-04T02:07:35.955Z,4.60
2023-05-04T02:09:37.697Z,5.07
2023-05-04T02:11:39.399Z,6.43
2023-05-04T02:13:41.137Z,5.37
2023-05-04T02:15:42.807Z,6.17
2023-05-04T02:17:44.649Z,5.67
2023-05-04T02:19:46.333Z,4.80
2023-05-04T02:21:48.236Z,5.93
2023-05-04T02:23:49.850Z,5.50
2023-05-04T02:25:52.387Z,5.23
2023-05-04T02:27:54.129Z,6.13
2023-05-04T02:29:58.327Z,4.60
2023-05-04T02:32:00.112Z,4.97
2023-05-04T02:34:02.256Z,5.43
2023-05-04T02:36:04.126Z,5.70
2023-05-04T02:38:06.069Z,5.07
2023-05-04T02:40:08.482Z,6.13
2023-05-04T02:42:10.294Z,6.20
2023-05-04T02:44:11.999Z,5.67
2023-05-04T02:46:14.465Z,5.67
2023-05-04T02:48:16.209Z,5.37
2023-05-04T02:50:18.234Z,5.33
2023-05-04T02:52:19.927Z,5.70
2023-05-04T02:54:21.536Z,5.57
2023-05-04T02:56:24.222Z,5.50
2023-05-04T02:58:25.848Z,5.77
2023-05-04T03:00:27.622Z,5.10
2023-05-04T03:02:29.370Z,5.27
2023-05-04T03:04:31.187Z,5.10
2023-05-04T03:06:33.475Z,4.80
2023-05-04T03:08:36.004Z,5.50
2023-05-04T03:10:37.681Z,5.80
2023-05-04T03:12:39.437Z,5.70
2023-05-04T03:14:41.442Z,5.20
2023-05-04T03:16:43.164Z,5.23
2023-05-04T03:21:04.389Z,5.53
2023-05-04T03:23:06.083Z,5.93
2023-05-04T03:25:08.278Z,5.00
2023-05-04T03:27:09.977Z,5.10
2023-05-04T03:29:11.669Z,5.37
2023-05-04T03:31:13.368Z,4.70
2023-05-04T03:33:15.083Z,5.40
2023-05-04T03:35:24.065Z,5.13
2023-05-04T03:37:26.510Z,4.90
2023-05-04T03:39:28.203Z,5.90
2023-05-04T03:41:30.019Z,5.30
2023-05-04T03:43:31.733Z,5.30
2023-05-04T03:45:33.519Z,5.33
2023-05-04T03:47:35.281Z,4.90
2023-05-04T03:49:37.070Z,5.90
2023-05-04T03:51:38.740Z,5.30
2023-05-04T03:53:41.721Z,5.60
2023-05-04T03:55:44.506Z,7.43
2023-05-04T03:57:46.388Z,6.83
2023-05-04T03:59:48.194Z,6.47
2023-05-04T04:01:49.892Z,5.80
2023-05-04T04:03:51.749Z,7.00
2023-05-04T04:05:53.458Z,7.27
2023-05-04T04:07:55.219Z,6.63
2023-05-04T04:09:56.907Z,6.70
2023-05-04T04:11:58.523Z,6.67
2023-05-04T04:14:00.304Z,6.83
2023-05-04T04:16:02.305Z,6.43
2023-05-04T04:18:04.085Z,6.70
2023-05-04T04:20:06.801Z,6.80
2023-05-04T04:22:08.708Z,6.23
2023-05-04T04:24:10.390Z,6.97
2023-05-04T04:26:12.066Z,6.07
2023-05-04T04:28:14.560Z,7.47
2023-05-04T04:30:16.884Z,6.47
2023-05-04T04:32:18.611Z,6.60
2023-05-04T04:34:20.389Z,6.77
2023-05-04T04:36:22.345Z,7.43
2023-05-04T04:38:24.768Z,7.17
2023-05-04T04:40:26.619Z,7.50
2023-05-04T04:42:28.317Z,6.50
2023-05-04T04:44:29.973Z,7.43
2023-05-04T04:46:31.793Z,7.40
2023-05-04T04:48:33.713Z,6.50
2023-05-04T04:50:38.643Z,6.80
2023-05-04T04:52:41.265Z,6.50
2023-05-04T04:54:42.899Z,6.70
2023-05-04T04:56:46.095Z,7.00
2023-05-04T04:58:48.449Z,6.57
2023-05-04T05:00:52.089Z,8.30
2023-05-04T05:02:54.160Z,6.70
2023-05-04T05:04:56.650Z,8.00
2023-05-04T05:06:58.846Z,6.03
2023-05-04T05:09:00.674Z,7.30
2023-05-04T05:11:02.318Z,7.33
2023-05-04T05:13:04.513Z,7.37
2023-05-04T05:15:07.357Z,5.83
2023-05-04T05:17:10.234Z,6.40
2023-05-04T05:19:12.088Z,6.73
2023-05-04T05:21:14.310Z,6.50
2023-05-04T05:23:16.396Z,6.50
2023-05-04T05:25:18.946Z,7.53
2023-05-04T05:27:20.648Z,7.50
2023-05-04T05:29:22.382Z,4.40
2023-05-04T05:31:24.246Z,6.40
2023-05-04T05:33:25.990Z,6.57
2023-05-04T05:35:27.631Z,6.60
2023-05-04T05:37:29.263Z,6.10
2023-05-04T05:39:30.996Z,5.13
2023-05-04T05:41:32.696Z,7.50
2023-05-04T05:43:34.351Z,7.30
2023-05-04T05:45:35.994Z,7.10
2023-05-04T05:47:38.003Z,6.63
2023-05-04T05:49:39.742Z,6.80
2023-05-04T05:51:41.863Z,7.40
2023-05-04T05:53:44.788Z,6.03
2023-05-04T05:55:47.141Z,6.20
2023-05-04T05:57:48.789Z,7.07
2023-05-04T05:59:50.717Z,6.87
2023-05-04T06:01:52.425Z,6.80
2023-05-04T06:03:54.386Z,6.80
2023-05-04T06:05:56.245Z,6.67
2023-05-04T06:07:57.959Z,7.23
2023-05-04T06:09:59.941Z,6.00
2023-05-04T06:12:01.766Z,6.90
2023-05-04T06:14:03.508Z,6.57
2023-05-04T06:16:05.324Z,7.67
2023-05-04T06:18:07.142Z,7.57
2023-05-04T06:20:09.495Z,6.43
2023-05-04T06:22:11.244Z,7.20
2023-05-04T06:24:12.903Z,7.00
2023-05-04T06:26:14.553Z,7.40
2023-05-04T06:28:16.213Z,6.63
2023-05-04T06:30:18.106Z,7.10
2023-05-04T06:32:19.882Z,7.37
2023-05-04T06:34:21.616Z,7.20
2023-05-04T06:36:25.663Z,6.03
2023-05-04T06:38:27.339Z,6.43
2023-05-04T06:40:29.327Z,6.90
2023-05-04T06:42:31.670Z,7.20
2023-05-04T06:44:37.307Z,6.67
2023-05-04T06:46:38.969Z,6.93
2023-05-04T06:48:41.249Z,6.87
2023-05-04T06:50:43.014Z,7.60
2023-05-04T06:52:45.239Z,6.00
2023-05-04T06:54:46.937Z,6.63
2023-05-04T06:56:48.622Z,6.90
2023-05-04T06:58:50.664Z,6.13
2023-05-04T07:00:52.970Z,5.90
2023-05-04T07:02:54.811Z,6.33
2023-05-04T07:04:57.704Z,6.00
2023-05-04T07:06:59.374Z,5.63
2023-05-04T07:09:01.349Z,6.27
2023-05-04T07:11:03.969Z,7.23
2023-05-04T07:13:05.999Z,5.70
2023-05-04T07:15:08.936Z,5.87
2023-05-04T07:17:10.651Z,5.40
2023-05-04T07:19:12.829Z,5.77
2023-05-04T07:21:26.672Z,5.60
2023-05-04T07:23:29.695Z,5.43
2023-05-04T07:25:31.667Z,5.50
2023-05-04T07:27:34.989Z,5.53
2023-05-04T07:29:36.729Z,5.60
2023-05-04T07:31:38.551Z,5.77
2023-05-04T07:33:40.831Z,5.60
2023-05-04T07:35:42.596Z,5.40
2023-05-04T07:37:44.277Z,5.73
2023-05-04T07:39:46.066Z,5.80
2023-05-04T07:41:49.574Z,5.03
2023-05-04T07:43:51.376Z,5.30
2023-05-04T07:45:53.721Z,5.40
2023-05-04T07:47:55.462Z,5.23
2023-05-04T07:49:57.196Z,4.93
2023-05-04T07:51:59.296Z,5.30
2023-05-04T07:54:01.031Z,5.23
2023-05-04T07:56:13.040Z,5.20
2023-05-04T07:58:16.682Z,4.47
2023-05-04T08:00:19.790Z,5.30
2023-05-04T08:02:21.961Z,4.10
2023-05-04T08:04:23.819Z,4.40
2023-05-04T08:06:25.564Z,4.47
2023-05-04T08:08:27.505Z,4.47
2023-05-04T08:10:29.298Z,4.23
2023-05-04T08:12:30.981Z,4.30
2023-05-04T08:14:33.687Z,4.93
2023-05-04T08:16:35.416Z,4.67
2023-05-04T08:18:37.137Z,4.90
2023-05-04T08:20:38.812Z,4.27
2023-05-04T08:22:40.500Z,4.10
2023-05-04T08:24:42.427Z,4.50
2023-05-04T08:26:49.608Z,4.50
2023-05-04T08:29:07.260Z,4.47
2023-05-04T08:31:09.201Z,3.67
2023-05-04T08:33:10.897Z,4.00
2023-05-04T08:35:13.597Z,4.17
2023-05-04T08:37:15.873Z,3.63
2023-05-04T08:39:18.532Z,3.73
2023-05-04T08:41:20.224Z,3.97
2023-05-04T08:43:21.977Z,3.87
2023-05-04T08:45:24.585Z,3.43
2023-05-04T08:47:27.576Z,3.70
2023-05-04T08:49:30.540Z,3.97
2023-05-04T08:51:35.623Z,3.47
2023-05-04T08:53:41.135Z,2.90
2023-05-04T08:55:46.833Z,3.63
2023-05-04T08:57:51.187Z,3.67
2023-05-04T08:59:54.468Z,2.63
2023-05-04T09:01:59.459Z,3.17
2023-05-04T09:04:02.523Z,3.30
2023-05-04T09:06:04.276Z,3.27
2023-05-04T09:08:06.790Z,4.20
2023-05-04T09:10:09.173Z,3.50
2023-05-04T09:12:10.831Z,4.43
2023-05-04T09:14:12.512Z,3.77
2023-05-04T09:16:16.230Z,4.07
2023-05-04T09:18:18.044Z,3.50
2023-05-04T09:20:19.943Z,3.53
2023-05-04T09:22:21.741Z,4.30
2023-05-04T09:24:27.823Z,3.40
2023-05-04T09:26:33.327Z,3.13
2023-05-04T09:28:36.817Z,3.87
2023-05-04T09:30:38.541Z,3.37
2023-05-04T09:32:47.237Z,4.00
2023-05-04T09:34:53.096Z,3.40
2023-05-04T09:37:02.126Z,3.23
2023-05-04T09:39:14.092Z,3.30
2023-05-04T09:41:16.059Z,3.17
2023-05-04T09:43:18.876Z,3.40
2023-05-04T09:45:21.091Z,3.07
2023-05-04T09:47:23.174Z,3.50
2023-05-04T09:49:31.988Z,3.00
2023-05-04T09:51:34.437Z,3.80
2023-05-04T09:53:40.181Z,2.70
2023-05-04T09:55:45.408Z,2.97
2023-05-04T09:57:49.282Z,3.50
2023-05-04T09:59:52.252Z,4.10
2023-05-04T10:01:54.224Z,3.77
2023-05-04T10:03:56.494Z,3.50
2023-05-04T10:06:00.286Z,3.50
2023-05-04T10:08:02.576Z,3.20
2023-05-04T10:10:05.939Z,3.70
2023-05-04T10:12:08.440Z,3.17
2023-05-04T10:14:10.532Z,3.33
2023-05-04T10:16:36.255Z,4.13
2023-05-04T10:19:03.801Z,3.30
2023-05-04T10:21:30.102Z,3.30
2023-05-04T10:23:34.747Z,3.00
2023-05-04T10:26:17.620Z,3.13
2023-05-04T10:28:43.468Z,3.63
2023-05-04T10:30:45.431Z,3.40
2023-05-04T10:32:55.630Z,3.00
2023-05-04T10:35:08.336Z,4.10
2023-05-04T10:37:17.195Z,3.77
2023-05-04T10:39:23.004Z,4.00
2023-05-04T10:41:24.690Z,3.93
2023-05-04T10:43:29.097Z,4.20
2023-05-04T10:45:37.707Z,3.60
2023-05-04T10:47:40.789Z,3.90
2023-05-04T10:49:42.760Z,3.97
2023-05-04T10:51:49.332Z,3.47
2023-05-04T10:53:52.808Z,2.60
2023-05-04T10:55:54.524Z,2.70
2023-05-04T10:57:57.944Z,3.37
2023-05-04T10:59:59.898Z,2.67
2023-05-04T11:02:02.929Z,2.50
2023-05-04T11:04:04.802Z,3.10
2023-05-04T11:06:21.071Z,2.83
2023-05-04T11:08:26.796Z,3.17
2023-05-04T11:10:28.556Z,3.63
2023-05-04T11:12:31.963Z,2.70
2023-05-04T11:14:41.343Z,3.73
2023-05-04T11:16:43.102Z,2.70
2023-05-04T11:18:44.938Z,3.60
2023-05-04T11:20:46.643Z,3.10
2023-05-04T11:22:49.450Z,3.50
2023-05-04T11:24:51.426Z,2.57
2023-05-04T11:26:53.121Z,3.00
2023-05-04T11:28:54.956Z,3.40
2023-05-04T11:30:57.564Z,2.80
2023-05-04T11:33:02.379Z,3.07
2023-05-04T11:35:08.353Z,3.17
2023-05-04T11:37:10.278Z,3.20
2023-05-04T11:39:12.036Z,3.53
2023-05-04T11:41:13.711Z,2.70
2023-05-04T11:43:16.999Z,3.30
2023-05-04T11:45:25.647Z,3.33
2023-05-04T11:47:27.486Z,3.30
2023-05-04T11:49:31.006Z,3.28
2023-05-04T11:51:32.660Z,3.53
2023-05-04T11:53:38.784Z,3.75
2023-05-04T11:55:41.891Z,3.75
2023-05-04T11:57:43.610Z,3.15
2023-05-04T11:59:51.515Z,3.40
2023-05-04T12:01:53.219Z,3.33
2023-05-04T12:03:55.131Z,3.30
2023-05-04T12:05:58.268Z,3.38
2023-05-04T12:08:00.557Z,3.40
2023-05-04T12:10:02.332Z,4.30
2023-05-04T12:12:04.188Z,3.92
2023-05-04T12:14:11.589Z,3.25
2023-05-04T12:16:23.404Z,3.95
2023-05-04T12:18:29.695Z,3.80
2023-05-04T12:20:31.674Z,4.20
2023-05-04T12:22:35.182Z,3.80
2023-05-04T12:24:36.983Z,3.58
2023-05-04T12:26:38.653Z,3.47
2023-05-04T12:28:42.738Z,3.10
2023-05-04T12:30:44.412Z,4.22
2023-05-04T12:32:46.330Z,3.80
2023-05-04T12:34:48.041Z,3.72
2023-05-04T12:36:50.879Z,3.60
2023-05-04T12:38:52.865Z,3.17
2023-05-04T12:40:55.904Z,3.17
2023-05-04T12:42:57.556Z,3.70
2023-05-04T12:45:00.088Z,2.92
2023-05-04T12:47:01.855Z,3.90
2023-05-04T12:49:03.507Z,3.75
2023-05-04T12:51:05.413Z,3.90
2023-05-04T12:53:07.479Z,4.25
2023-05-04T12:55:09.351Z,3.97
2023-05-04T12:57:12.278Z,3.65
2023-05-04T12:59:13.962Z,4.00
2023-05-04T13:01:16.759Z,4.07
2023-05-04T13:03:18.837Z,5.38
2023-05-04T13:05:22.731Z,3.45
2023-05-04T13:07:24.410Z,4.70
2023-05-04T13:09:26.070Z,3.65
2023-05-04T13:11:27.753Z,2.88
2023-05-04T13:13:29.823Z,3.80
2023-05-04T13:15:32.989Z,4.82
2023-05-04T13:17:34.796Z,5.28
2023-05-04T13:19:36.744Z,4.22
2023-05-04T13:21:38.373Z,4.30
2023-05-04T13:23:40.069Z,5.30
2023-05-04T13:25:42.099Z,4.68
2023-05-04T13:27:43.791Z,4.45
2023-05-04T13:29:45.437Z,4.80
2023-05-04T13:31:47.522Z,3.88
2023-05-04T13:33:50.514Z,5.22
2023-05-04T13:35:52.369Z,4.88
2023-05-04T13:37:54.067Z,4.90
2023-05-04T13:39:56.333Z,4.75
2023-05-04T13:41:58.010Z,4.45
2023-05-04T13:43:59.687Z,5.00
2023-05-04T13:46:04.691Z,4.78
2023-05-04T13:48:06.449Z,3.80
2023-05-04T13:50:08.657Z,3.70
2023-05-04T13:52:10.662Z,4.22
2023-05-04T13:54:12.893Z,4.20
2023-05-04T13:56:14.559Z,4.28
2023-05-04T13:58:16.340Z,4.57
2023-05-04T14:00:18.306Z,4.07
2023-05-04T14:02:20.110Z,4.53
2023-05-04T14:04:22.578Z,3.72
2023-05-04T14:06:26.000Z,3.67
2023-05-04T14:08:27.692Z,4.25
2023-05-04T14:10:29.366Z,4.38
2023-05-04T14:12:31.170Z,4.03
2023-05-04T14:14:33.050Z,4.78
2023-05-04T14:16:37.351Z,4.68
2023-05-04T14:18:39.307Z,4.43
2023-05-04T14:20:41.032Z,3.60
2023-05-04T14:22:42.884Z,3.50
2023-05-04T14:24:44.572Z,4.25
2023-05-04T14:26:46.298Z,4.10
2023-05-04T14:28:48.671Z,4.63
2023-05-04T14:30:50.936Z,4.13
2023-05-04T14:32:56.289Z,3.42
2023-05-04T14:35:08.220Z,3.72
2023-05-04T14:37:10.222Z,3.95
2023-05-04T14:39:11.911Z,3.80
2023-05-04T14:41:14.208Z,3.92
2023-05-04T14:43:15.893Z,3.60
2023-05-04T14:45:17.774Z,4.05
2023-05-04T14:47:20.150Z,3.70
2023-05-04T14:49:35.889Z,4.00
2023-05-04T14:51:39.237Z,3.22
2023-05-04T14:53:41.309Z,3.95
2023-05-04T14:55:43.499Z,3.95
2023-05-04T14:57:45.222Z,3.33
2023-05-04T14:59:46.924Z,3.45
2023-05-04T15:01:48.935Z,3.63
2023-05-04T15:03:51.094Z,4.05
2023-05-04T15:05:52.996Z,3.92
2023-05-04T15:07:54.649Z,3.42
2023-05-04T15:09:56.489Z,3.60
2023-05-04T15:11:58.307Z,3.85
2023-05-04T15:14:00.006Z,3.10
2023-05-04T15:16:01.673Z,4.00
2023-05-04T15:18:03.535Z,3.97
2023-05-04T15:20:06.401Z,3.70
2023-05-04T15:22:08.499Z,4.25
2023-05-04T15:24:10.308Z,3.75
2023-05-04T15:26:11.963Z,3.65
2023-05-04T15:28:13.774Z,3.80
2023-05-04T15:30:15.663Z,4.10
2023-05-04T15:32:17.322Z,4.95
2023-05-04T15:34:19.085Z,3.70
2023-05-04T15:36:20.857Z,4.18
2023-05-04T15:38:22.657Z,3.30
2023-05-04T15:40:24.346Z,3.50
2023-05-04T15:42:26.076Z,3.30
2023-05-04T15:44:28.035Z,3.05
2023-05-04T15:46:29.797Z,3.20
2023-05-04T15:48:31.522Z,3.88
2023-05-04T15:50:33.539Z,4.20
2023-05-04T15:52:35.209Z,3.78
2023-05-04T15:54:36.914Z,4.00
2023-05-04T15:56:38.605Z,4.10
2023-05-04T15:58:40.291Z,3.42
2023-05-04T16:00:42.197Z,3.55
2023-05-04T16:02:44.012Z,3.58
2023-05-04T16:04:45.822Z,3.70
2023-05-04T16:06:47.823Z,3.60
2023-05-04T16:08:49.584Z,3.70
2023-05-04T16:10:53.223Z,3.23
2023-05-04T16:12:55.075Z,3.00
2023-05-04T16:14:56.803Z,2.90
2023-05-04T16:17:02.680Z,3.70
2023-05-04T16:19:04.360Z,3.60
2023-05-04T16:21:06.101Z,2.60
2023-05-04T16:23:07.803Z,3.63
2023-05-04T16:25:43.932Z,3.42
2023-05-04T16:27:45.644Z,3.30
2023-05-04T16:29:47.280Z,3.33
2023-05-04T16:31:48.931Z,3.45
2023-05-04T16:33:50.662Z,2.80
2023-05-04T16:35:52.562Z,3.13
2023-05-04T16:37:54.233Z,2.85
2023-05-04T16:39:56.498Z,3.67
2023-05-04T16:41:58.747Z,3.20
2023-05-04T16:44:00.419Z,3.20
2023-05-04T16:46:02.655Z,3.37
2023-05-04T16:48:05.620Z,3.80
2023-05-04T16:50:09.282Z,3.70
2023-05-04T16:52:11.097Z,3.60
2023-05-04T16:54:12.793Z,3.30
2023-05-04T16:56:20.047Z,3.50
2023-05-04T16:58:21.732Z,2.87
2023-05-04T17:00:23.823Z,3.20
2023-05-04T17:02:26.036Z,2.83
2023-05-04T17:04:29.492Z,3.00
2023-05-04T17:06:31.298Z,3.20
2023-05-04T17:08:34.806Z,3.67
2023-05-04T17:10:36.460Z,3.07
2023-05-04T17:12:38.505Z,3.20
2023-05-04T17:14:40.401Z,2.97
2023-05-04T17:16:42.064Z,3.30
2023-05-04T17:18:43.762Z,3.30
2023-05-04T17:20:45.414Z,3.10
2023-05-04T17:22:47.855Z,3.30
2023-05-04T17:24:49.533Z,3.10
2023-05-04T17:26:51.223Z,3.20
2023-05-04T17:28:52.916Z,3.57
2023-05-04T17:30:54.583Z,3.50
2023-05-04T17:32:57.349Z,3.10
2023-05-04T17:35:05.523Z,2.90
2023-05-04T17:37:13.733Z,3.27
2023-05-04T17:39:15.565Z,3.40
2023-05-04T17:41:17.683Z,3.00
2023-05-04T17:43:19.428Z,3.40
2023-05-04T17:45:21.556Z,3.30
2023-05-04T17:47:23.223Z,3.40
2023-05-04T17:49:25.447Z,3.03
2023-05-04T17:51:27.095Z,2.97
2023-05-04T17:53:29.300Z,3.50
2023-05-04T17:55:31.082Z,3.13
2023-05-04T17:57:32.767Z,3.23
2023-05-04T17:59:34.477Z,3.10
2023-05-04T18:01:36.137Z,3.47
2023-05-04T18:03:37.981Z,3.30
2023-05-04T18:05:41.572Z,2.83
2023-05-04T18:07:43.251Z,3.00
2023-05-04T18:09:44.892Z,2.93
2023-05-04T18:11:47.237Z,3.00
2023-05-04T18:13:48.926Z,2.90
2023-05-04T18:15:50.975Z,2.93
2023-05-04T18:17:52.874Z,3.23
2023-05-04T18:19:55.291Z,3.20
2023-05-04T18:21:56.955Z,3.33
2023-05-04T18:23:58.583Z,3.43
2023-05-04T18:26:00.309Z,3.63
2023-05-04T18:28:02.226Z,3.50
2023-05-04T18:30:06.177Z,2.60
2023-05-04T18:32:08.896Z,3.70
2023-05-04T18:34:10.623Z,3.30
2023-05-04T18:36:12.464Z,3.17
2023-05-04T18:38:14.126Z,3.23
2023-05-04T18:40:15.844Z,2.97
2023-05-04T18:42:17.947Z,3.17
2023-05-04T18:44:19.607Z,3.00
2023-05-04T18:46:22.179Z,3.70
2023-05-04T18:48:23.855Z,3.97
2023-05-04T18:50:25.478Z,3.50
2023-05-04T18:52:27.154Z,3.30
2023-05-04T18:54:32.419Z,3.10
2023-05-04T18:56:34.182Z,3.20
2023-05-04T18:58:36.979Z,3.00
2023-05-04T19:00:38.609Z,3.57
2023-05-04T19:02:40.286Z,3.73
2023-05-04T19:04:42.872Z,3.23
2023-05-04T19:06:45.414Z,2.60
2023-05-04T19:08:47.085Z,3.03
2023-05-04T19:10:49.715Z,3.47
2023-05-04T19:12:51.705Z,3.73
2023-05-04T19:14:54.276Z,3.40
2023-05-04T19:16:55.968Z,3.57
2023-05-04T19:18:57.819Z,3.67
2023-05-04T19:21:04.500Z,3.87
2023-05-04T19:23:06.288Z,3.70
2023-05-04T19:25:09.546Z,3.83
2023-05-04T19:27:11.880Z,3.10
2023-05-04T19:29:13.978Z,4.00
2023-05-04T19:31:17.114Z,3.60
2023-05-04T19:33:18.805Z,4.07
2023-05-04T19:35:20.521Z,4.13
2023-05-04T19:37:22.225Z,3.80
2023-05-04T19:39:23.909Z,3.50
2023-05-04T19:41:26.681Z,4.00
2023-05-04T19:43:28.532Z,3.87
2023-05-04T19:45:30.423Z,3.50
2023-05-04T19:47:32.349Z,3.13
2023-05-04T19:49:34.410Z,4.03
2023-05-04T19:51:36.102Z,3.73
2023-05-04T19:53:37.776Z,4.70
2023-05-04T19:55:39.498Z,4.00
2023-05-04T19:57:41.182Z,3.80
2023-05-04T19:59:44.807Z,4.17
2023-05-04T20:01:47.939Z,4.07
2023-05-04T20:03:49.975Z,4.40
2023-05-04T20:05:52.597Z,4.10
2023-05-04T20:07:54.571Z,3.70
2023-05-04T20:09:57.160Z,3.83
2023-05-04T20:11:59.088Z,4.97
2023-05-04T20:14:01.136Z,4.17
2023-05-04T20:16:02.849Z,3.97
2023-05-04T20:18:04.928Z,3.70
2023-05-04T20:20:07.159Z,4.30
2023-05-04T20:22:09.432Z,3.63
2023-05-04T20:24:12.274Z,3.90
2023-05-04T20:26:13.908Z,4.50
2023-05-04T20:28:16.463Z,4.23
2023-05-04T20:30:18.257Z,3.60
2023-05-04T20:32:19.895Z,3.93
2023-05-04T20:34:21.784Z,4.07
2023-05-04T20:36:23.543Z,3.50
2023-05-04T20:38:25.350Z,4.40
2023-05-04T20:40:27.056Z,4.57
2023-05-04T20:42:29.273Z,4.20
2023-05-04T20:44:30.993Z,4.20
2023-05-04T20:46:32.744Z,4.57
2023-05-04T20:48:35.419Z,3.37
2023-05-04T20:50:37.991Z,4.23
2023-05-04T20:52:40.151Z,4.53
2023-05-04T20:54:41.895Z,4.60
2023-05-04T20:56:43.577Z,4.63
2023-05-04T20:58:45.218Z,3.53
2023-05-04T21:00:47.066Z,4.40
2023-05-04T21:02:48.817Z,4.10
2023-05-04T21:04:50.626Z,4.13
2023-05-04T21:06:53.175Z,4.07
2023-05-04T21:08:54.810Z,3.83
2023-05-04T21:10:56.523Z,4.10
2023-05-04T21:12:58.296Z,4.13
2023-05-04T21:15:00.058Z,4.03
2023-05-04T21:17:01.814Z,4.27
2023-05-04T21:19:03.483Z,3.97
2023-05-04T21:21:05.416Z,4.00
2023-05-04T21:23:07.572Z,4.23
2023-05-04T21:25:09.815Z,4.40
2023-05-04T21:27:11.635Z,4.40
2023-05-04T21:29:13.520Z,4.13
2023-05-04T21:31:15.308Z,4.10
2023-05-04T21:33:17.013Z,4.30
2023-05-04T21:35:21.125Z,4.50
2023-05-04T21:37:22.841Z,3.73
2023-05-04T21:39:24.623Z,3.90
2023-05-04T21:41:26.266Z,4.00
2023-05-04T21:43:27.930Z,3.90
2023-05-04T21:45:32.914Z,3.90
2023-05-04T21:47:36.139Z,3.93
2023-05-04T21:49:37.953Z,4.40
2023-05-04T21:51:39.637Z,4.30
2023-05-04T21:53:43.292Z,3.67
2023-05-04T21:55:44.897Z,4.60
2023-05-04T21:57:46.528Z,4.23
2023-05-04T21:59:49.582Z,4.57
2023-05-04T22:01:51.558Z,4.17
2023-05-04T22:03:53.212Z,4.30
2023-05-04T22:05:57.587Z,3.97
2023-05-04T22:08:00.783Z,5.00
2023-05-04T22:10:06.144Z,4.67
2023-05-04T22:12:08.164Z,4.40
2023-05-04T22:14:09.832Z,4.57
2023-05-04T22:16:11.552Z,4.83
2023-05-04T22:18:13.716Z,4.40
2023-05-04T22:20:15.487Z,5.20
2023-05-04T22:22:17.167Z,4.47
2023-05-04T22:24:18.851Z,4.10
2023-05-04T22:26:20.708Z,4.50
2023-05-04T22:28:22.343Z,4.10
2023-05-04T22:30:25.809Z,4.30
2023-05-04T22:32:27.538Z,4.50
2023-05-04T22:34:29.228Z,4.40
2023-05-04T22:36:31.033Z,4.17
2023-05-04T22:38:32.746Z,4.93
2023-05-04T22:40:34.359Z,5.20
2023-05-04T22:42:36.077Z,3.80
2023-05-04T22:44:37.774Z,3.97
2023-05-04T22:46:39.690Z,4.27
2023-05-04T22:48:41.548Z,4.20
2023-05-04T22:50:43.658Z,4.87
2023-05-04T22:52:45.443Z,4.67
2023-05-04T22:54:47.256Z,4.60
2023-05-04T22:56:48.932Z,5.27
2023-05-04T22:58:50.949Z,4.80
2023-05-04T23:00:52.691Z,4.87
2023-05-04T23:02:54.483Z,5.20
2023-05-04T23:04:57.076Z,4.53
2023-05-04T23:06:58.717Z,4.87
2023-05-04T23:09:02.295Z,5.07
2023-05-04T23:11:04.086Z,4.27
2023-05-04T23:13:05.905Z,4.53
2023-05-04T23:15:08.570Z,4.23
2023-05-04T23:17:12.812Z,4.40
2023-05-04T23:19:14.507Z,5.07
2023-05-04T23:21:16.180Z,4.77
2023-05-04T23:23:17.869Z,4.47
2023-05-04T23:25:19.713Z,4.33
2023-05-04T23:27:21.682Z,4.20
2023-05-04T23:29:23.426Z,4.90
2023-05-04T23:31:25.174Z,4.77
2023-05-04T23:33:26.889Z,4.30
2023-05-04T23:35:28.556Z,4.13
2023-05-04T23:37:33.449Z,4.03
2023-05-04T23:39:35.094Z,4.80
2023-05-04T23:41:36.840Z,4.80
2023-05-04T23:43:38.714Z,4.40
2023-05-04T23:45:40.474Z,4.67
2023-05-04T23:47:42.208Z,4.70
2023-05-04T23:49:44.167Z,5.30
2023-05-04T23:51:45.816Z,4.00
2023-05-04T23:53:47.499Z,4.90
2023-05-04T23:55:57.890Z,5.00
2023-05-04T23:57:59.604Z,4.03
